sensor_id;sensor_type;location;lat;lon;timestamp;pressure;altitude;pressure_sealevel;temperature;humidity
68712;BME280;55690;51.566;19.198;2023-06-01T00:00:13;101838.95;;;16.51;62.77
68712;BME280;55690;51.566;19.198;2023-06-01T00:04:20;101833.70;;;16.48;63.00
68712;BME280;55690;51.566;19.198;2023-06-01T00:08:23;101831.34;;;16.55;62.49
68712;BME280;55690;51.566;19.198;2023-06-01T00:12:29;101836.35;;;16.39;62.92
68712;BME280;55690;51.566;19.198;2023-06-01T00:16:36;101827.87;;;16.30;63.47
68712;BME280;55690;51.566;19.198;2023-06-01T00:20:42;101834.97;;;16.22;64.07
68712;BME280;55690;51.566;19.198;2023-06-01T00:24:48;101830.22;;;16.13;64.01
68712;BME280;55690;51.566;19.198;2023-06-01T00:28:54;101824.85;;;16.11;63.91
68712;BME280;55690;51.566;19.198;2023-06-01T00:33:00;101823.86;;;16.12;64.42
68712;BME280;55690;51.566;19.198;2023-06-01T00:37:06;101821.24;;;16.11;63.82
68712;BME280;55690;51.566;19.198;2023-06-01T00:41:13;101818.99;;;15.93;64.94
68712;BME280;55690;51.566;19.198;2023-06-01T00:45:19;101824.35;;;15.95;64.19
68712;BME280;55690;51.566;19.198;2023-06-01T00:49:25;101820.35;;;15.88;65.00
68712;BME280;55690;51.566;19.198;2023-06-01T00:53:31;101818.85;;;15.84;65.87
68712;BME280;55690;51.566;19.198;2023-06-01T00:57:39;101806.84;;;15.62;66.64
68712;BME280;55690;51.566;19.198;2023-06-01T01:01:43;101808.47;;;15.65;66.48
68712;BME280;55690;51.566;19.198;2023-06-01T01:05:50;101801.63;;;15.71;66.10
68712;BME280;55690;51.566;19.198;2023-06-01T01:14:19;101797.26;;;15.57;66.96
68712;BME280;55690;51.566;19.198;2023-06-01T01:18:32;101796.27;;;15.69;66.11
68712;BME280;55690;51.566;19.198;2023-06-01T01:27:01;101795.79;;;15.40;67.46
68712;BME280;55690;51.566;19.198;2023-06-01T01:31:04;101791.62;;;15.23;68.26
68712;BME280;55690;51.566;19.198;2023-06-01T01:35:08;101786.83;;;15.38;67.27
68712;BME280;55690;51.566;19.198;2023-06-01T01:39:10;101784.45;;;15.34;67.58
68712;BME280;55690;51.566;19.198;2023-06-01T01:43:12;101787.66;;;15.27;67.64
68712;BME280;55690;51.566;19.198;2023-06-01T01:47:44;101780.95;;;15.31;67.27
68712;BME280;55690;51.566;19.198;2023-06-01T01:51:46;101779.37;;;15.05;67.86
68712;BME280;55690;51.566;19.198;2023-06-01T01:55:39;101779.25;;;15.07;68.32
68712;BME280;55690;51.566;19.198;2023-06-01T01:59:45;101781.66;;;15.22;68.02
68712;BME280;55690;51.566;19.198;2023-06-01T02:07:59;101773.76;;;14.83;68.65
68712;BME280;55690;51.566;19.198;2023-06-01T02:12:03;101773.53;;;14.86;68.55
68712;BME280;55690;51.566;19.198;2023-06-01T02:16:05;101776.73;;;14.80;69.31
68712;BME280;55690;51.566;19.198;2023-06-01T02:20:08;101776.80;;;14.67;69.35
68712;BME280;55690;51.566;19.198;2023-06-01T02:24:11;101775.51;;;14.60;69.63
68712;BME280;55690;51.566;19.198;2023-06-01T02:28:13;101760.78;;;14.74;69.21
68712;BME280;55690;51.566;19.198;2023-06-01T02:32:15;101762.59;;;14.86;69.03
68712;BME280;55690;51.566;19.198;2023-06-01T02:36:16;101762.26;;;14.90;68.53
68712;BME280;55690;51.566;19.198;2023-06-01T02:40:18;101748.48;;;14.68;69.41
68712;BME280;55690;51.566;19.198;2023-06-01T02:44:20;101751.55;;;14.63;69.60
68712;BME280;55690;51.566;19.198;2023-06-01T02:48:24;101746.24;;;14.73;69.15
68712;BME280;55690;51.566;19.198;2023-06-01T02:52:30;101747.11;;;14.74;69.57
68712;BME280;55690;51.566;19.198;2023-06-01T02:56:36;101748.92;;;14.86;69.31
68712;BME280;55690;51.566;19.198;2023-06-01T03:00:43;101749.79;;;14.86;69.63
68712;BME280;55690;51.566;19.198;2023-06-01T03:04:49;101748.09;;;14.49;69.77
68712;BME280;55690;51.566;19.198;2023-06-01T03:08:55;101742.99;;;14.92;69.00
68712;BME280;55690;51.566;19.198;2023-06-01T03:13:01;101748.46;;;14.92;69.53
68712;BME280;55690;51.566;19.198;2023-06-01T03:17:07;101751.37;;;15.02;70.19
68712;BME280;55690;51.566;19.198;2023-06-01T03:21:14;101744.85;;;15.15;69.74
68712;BME280;55690;51.566;19.198;2023-06-01T03:25:20;101738.35;;;15.16;70.37
68712;BME280;55690;51.566;19.198;2023-06-01T03:29:26;101735.19;;;15.34;70.12
68712;BME280;55690;51.566;19.198;2023-06-01T03:33:32;101742.23;;;15.14;71.25
68712;BME280;55690;51.566;19.198;2023-06-01T03:37:41;101738.79;;;15.34;69.96
68712;BME280;55690;51.566;19.198;2023-06-01T03:41:45;101742.09;;;15.50;70.74
68712;BME280;55690;51.566;19.198;2023-06-01T03:45:51;101743.59;;;15.54;70.35
68712;BME280;55690;51.566;19.198;2023-06-01T03:49:57;101735.67;;;15.74;70.10
68712;BME280;55690;51.566;19.198;2023-06-01T03:54:03;101732.45;;;15.80;69.88
68712;BME280;55690;51.566;19.198;2023-06-01T03:58:09;101724.87;;;15.94;69.59
68712;BME280;55690;51.566;19.198;2023-06-01T04:02:16;101726.23;;;15.89;69.95
68712;BME280;55690;51.566;19.198;2023-06-01T04:06:22;101730.45;;;16.26;69.46
68712;BME280;55690;51.566;19.198;2023-06-01T04:10:28;101713.83;;;16.50;68.83
68712;BME280;55690;51.566;19.198;2023-06-01T04:14:35;101713.67;;;16.63;69.77
68712;BME280;55690;51.566;19.198;2023-06-01T04:18:41;101712.18;;;17.02;68.42
68712;BME280;55690;51.566;19.198;2023-06-01T04:22:46;101709.87;;;17.18;69.65
68712;BME280;55690;51.566;19.198;2023-06-01T04:26:52;101703.84;;;17.45;69.54
68712;BME280;55690;51.566;19.198;2023-06-01T04:30:59;101698.43;;;17.76;67.92
68712;BME280;55690;51.566;19.198;2023-06-01T04:35:07;101695.20;;;18.01;67.18
68712;BME280;55690;51.566;19.198;2023-06-01T04:39:11;101693.73;;;17.97;67.67
68712;BME280;55690;51.566;19.198;2023-06-01T04:43:17;101689.40;;;18.44;66.90
68712;BME280;55690;51.566;19.198;2023-06-01T04:47:23;101665.73;;;18.63;67.28
68712;BME280;55690;51.566;19.198;2023-06-01T04:51:29;101683.25;;;18.81;66.09
68712;BME280;55690;51.566;19.198;2023-06-01T04:55:36;101681.82;;;19.06;65.72
68712;BME280;55690;51.566;19.198;2023-06-01T04:59:42;101681.68;;;19.83;65.17
68712;BME280;55690;51.566;19.198;2023-06-01T05:03:48;101672.74;;;19.99;65.47
68712;BME280;55690;51.566;19.198;2023-06-01T05:07:54;101672.09;;;19.87;66.35
68712;BME280;55690;51.566;19.198;2023-06-01T05:12:00;101673.20;;;19.94;65.68
68712;BME280;55690;51.566;19.198;2023-06-01T05:16:08;101670.55;;;20.02;65.13
68712;BME280;55690;51.566;19.198;2023-06-01T05:20:13;101665.53;;;20.70;64.28
68712;BME280;55690;51.566;19.198;2023-06-01T05:24:19;101667.88;;;21.18;63.84
68712;BME280;55690;51.566;19.198;2023-06-01T05:28:25;101668.68;;;21.11;63.52
68712;BME280;55690;51.566;19.198;2023-06-01T05:32:31;101662.20;;;21.64;62.97
68712;BME280;55690;51.566;19.198;2023-06-01T05:36:37;101661.95;;;22.09;61.97
68712;BME280;55690;51.566;19.198;2023-06-01T05:40:44;101657.10;;;22.69;61.52
68712;BME280;55690;51.566;19.198;2023-06-01T05:44:50;101655.77;;;22.98;60.32
68712;BME280;55690;51.566;19.198;2023-06-01T05:48:56;101641.25;;;22.96;59.80
68712;BME280;55690;51.566;19.198;2023-06-01T05:53:02;101651.29;;;23.13;58.41
68712;BME280;55690;51.566;19.198;2023-06-01T05:57:08;101643.64;;;23.64;58.91
68712;BME280;55690;51.566;19.198;2023-06-01T06:01:14;101646.24;;;23.57;57.97
68712;BME280;55690;51.566;19.198;2023-06-01T06:05:21;101650.63;;;23.99;58.02
68712;BME280;55690;51.566;19.198;2023-06-01T06:09:27;101641.71;;;24.19;56.08
68712;BME280;55690;51.566;19.198;2023-06-01T06:13:33;101643.29;;;24.76;56.50
68712;BME280;55690;51.566;19.198;2023-06-01T06:17:39;101643.12;;;25.23;55.70
68712;BME280;55690;51.566;19.198;2023-06-01T06:21:45;101647.91;;;25.52;55.43
68712;BME280;55690;51.566;19.198;2023-06-01T06:25:51;101641.12;;;25.69;55.11
68712;BME280;55690;51.566;19.198;2023-06-01T06:29:57;101635.64;;;26.05;54.84
68712;BME280;55690;51.566;19.198;2023-06-01T06:34:04;101639.76;;;26.24;54.24
68712;BME280;55690;51.566;19.198;2023-06-01T06:38:12;101641.80;;;26.66;54.09
68712;BME280;55690;51.566;19.198;2023-06-01T06:42:16;101646.98;;;26.91;53.27
68712;BME280;55690;51.566;19.198;2023-06-01T06:46:23;101644.50;;;27.66;51.39
68712;BME280;55690;51.566;19.198;2023-06-01T06:50:28;101638.59;;;27.27;51.19
68712;BME280;55690;51.566;19.198;2023-06-01T06:54:35;101638.02;;;27.38;49.90
68712;BME280;55690;51.566;19.198;2023-06-01T06:58:41;101638.46;;;27.97;50.04
68712;BME280;55690;51.566;19.198;2023-06-01T07:02:48;101629.39;;;28.84;49.24
68712;BME280;55690;51.566;19.198;2023-06-01T07:06:53;101630.91;;;28.87;48.24
68712;BME280;55690;51.566;19.198;2023-06-01T07:10:59;101628.25;;;28.72;48.73
68712;BME280;55690;51.566;19.198;2023-06-01T07:15:06;101625.11;;;29.08;48.23
68712;BME280;55690;51.566;19.198;2023-06-01T07:19:12;101624.30;;;28.40;47.95
68712;BME280;55690;51.566;19.198;2023-06-01T07:23:17;101629.23;;;29.38;48.40
68712;BME280;55690;51.566;19.198;2023-06-01T07:27:24;101613.97;;;29.41;47.62
68712;BME280;55690;51.566;19.198;2023-06-01T07:31:32;101617.56;;;29.81;47.08
68712;BME280;55690;51.566;19.198;2023-06-01T07:35:36;101603.09;;;29.91;47.25
68712;BME280;55690;51.566;19.198;2023-06-01T07:39:42;101613.43;;;30.03;46.97
68712;BME280;55690;51.566;19.198;2023-06-01T07:43:48;101601.13;;;30.04;46.60
68712;BME280;55690;51.566;19.198;2023-06-01T07:47:54;101602.38;;;30.22;47.02
68712;BME280;55690;51.566;19.198;2023-06-01T07:52:01;101596.47;;;30.36;44.93
68712;BME280;55690;51.566;19.198;2023-06-01T07:56:07;101593.25;;;30.33;46.06
68712;BME280;55690;51.566;19.198;2023-06-01T08:00:14;101597.88;;;30.14;44.23
68712;BME280;55690;51.566;19.198;2023-06-01T08:04:19;101602.64;;;30.90;45.32
68712;BME280;55690;51.566;19.198;2023-06-01T08:08:25;101599.99;;;30.25;45.83
68712;BME280;55690;51.566;19.198;2023-06-01T08:12:32;101599.45;;;30.41;43.37
68712;BME280;55690;51.566;19.198;2023-06-01T08:16:38;101598.53;;;30.54;44.48
68712;BME280;55690;51.566;19.198;2023-06-01T08:20:44;101594.05;;;30.85;43.41
68712;BME280;55690;51.566;19.198;2023-06-01T08:24:50;101591.28;;;31.09;44.66
68712;BME280;55690;51.566;19.198;2023-06-01T08:28:56;101591.88;;;30.87;43.79
68712;BME280;55690;51.566;19.198;2023-06-01T08:33:02;101594.13;;;31.03;43.04
68712;BME280;55690;51.566;19.198;2023-06-01T08:37:08;101588.91;;;31.13;42.97
68712;BME280;55690;51.566;19.198;2023-06-01T08:45:32;101575.77;;;31.07;41.43
68712;BME280;55690;51.566;19.198;2023-06-01T08:49:35;101561.26;;;31.17;40.86
68712;BME280;55690;51.566;19.198;2023-06-01T08:53:38;101563.52;;;31.26;41.71
68712;BME280;55690;51.566;19.198;2023-06-01T08:57:45;101554.52;;;31.42;41.37
68712;BME280;55690;51.566;19.198;2023-06-01T09:01:47;101542.20;;;31.43;41.10
68712;BME280;55690;51.566;19.198;2023-06-01T09:05:51;101554.58;;;31.36;40.87
68712;BME280;55690;51.566;19.198;2023-06-01T09:09:58;101546.42;;;31.53;40.85
68712;BME280;55690;51.566;19.198;2023-06-01T09:18:17;101529.48;;;31.41;40.29
68712;BME280;55690;51.566;19.198;2023-06-01T09:22:19;101528.35;;;32.03;40.75
68712;BME280;55690;51.566;19.198;2023-06-01T09:26:26;101506.09;;;32.62;40.90
68712;BME280;55690;51.566;19.198;2023-06-01T09:30:39;101517.62;;;32.30;41.31
68712;BME280;55690;51.566;19.198;2023-06-01T09:34:44;101516.38;;;32.26;40.77
68712;BME280;55690;51.566;19.198;2023-06-01T09:38:47;101508.80;;;32.27;40.51
68712;BME280;55690;51.566;19.198;2023-06-01T09:42:49;101508.84;;;31.54;41.38
68712;BME280;55690;51.566;19.198;2023-06-01T09:46:59;101503.76;;;32.47;40.35
68712;BME280;55690;51.566;19.198;2023-06-01T09:51:02;101504.26;;;31.78;39.34
68712;BME280;55690;51.566;19.198;2023-06-01T09:55:07;101489.80;;;31.92;40.74
68712;BME280;55690;51.566;19.198;2023-06-01T09:59:11;101496.99;;;31.88;40.09
68712;BME280;55690;51.566;19.198;2023-06-01T10:03:19;101490.55;;;32.48;40.61
68712;BME280;55690;51.566;19.198;2023-06-01T10:07:27;101488.66;;;32.12;39.92
68712;BME280;55690;51.566;19.198;2023-06-01T10:11:30;101483.66;;;32.32;40.42
68712;BME280;55690;51.566;19.198;2023-06-01T10:15:36;101477.12;;;32.61;40.75
68712;BME280;55690;51.566;19.198;2023-06-01T10:19:43;101463.35;;;32.30;39.61
68712;BME280;55690;51.566;19.198;2023-06-01T10:23:49;101484.45;;;32.62;40.25
68712;BME280;55690;51.566;19.198;2023-06-01T10:28:01;101464.02;;;32.55;40.58
68712;BME280;55690;51.566;19.198;2023-06-01T10:32:04;101467.05;;;32.84;40.09
68712;BME280;55690;51.566;19.198;2023-06-01T10:36:11;101459.44;;;33.43;38.90
68712;BME280;55690;51.566;19.198;2023-06-01T10:40:20;101453.95;;;33.36;38.54
68712;BME280;55690;51.566;19.198;2023-06-01T10:52:49;101453.45;;;33.39;39.12
68712;BME280;55690;51.566;19.198;2023-06-01T11:01:05;101438.28;;;33.17;38.36
68712;BME280;55690;51.566;19.198;2023-06-01T11:09:28;101433.48;;;32.70;38.87
68712;BME280;55690;51.566;19.198;2023-06-01T11:13:36;101429.25;;;33.78;38.67
68712;BME280;55690;51.566;19.198;2023-06-01T11:17:40;101426.66;;;33.25;38.23
68712;BME280;55690;51.566;19.198;2023-06-01T11:21:43;101416.85;;;33.39;38.83
68712;BME280;55690;51.566;19.198;2023-06-01T11:25:45;101414.55;;;33.76;38.02
68712;BME280;55690;51.566;19.198;2023-06-01T11:29:48;101409.73;;;33.88;38.22
68712;BME280;55690;51.566;19.198;2023-06-01T11:33:51;101408.82;;;33.31;38.91
68712;BME280;55690;51.566;19.198;2023-06-01T11:37:54;101409.37;;;33.45;38.43
68712;BME280;55690;51.566;19.198;2023-06-01T11:42:06;101406.88;;;33.60;38.81
68712;BME280;55690;51.566;19.198;2023-06-01T11:46:09;101390.82;;;34.00;38.61
68712;BME280;55690;51.566;19.198;2023-06-01T11:50:23;101390.66;;;34.24;38.39
68712;BME280;55690;51.566;19.198;2023-06-01T11:54:28;101378.63;;;34.12;38.02
68712;BME280;55690;51.566;19.198;2023-06-01T11:58:30;101361.22;;;33.58;38.53
68712;BME280;55690;51.566;19.198;2023-06-01T12:02:32;101377.78;;;33.83;37.97
68712;BME280;55690;51.566;19.198;2023-06-01T12:06:34;101369.74;;;33.75;37.85
68712;BME280;55690;51.566;19.198;2023-06-01T12:10:37;101366.83;;;33.29;37.74
68712;BME280;55690;51.566;19.198;2023-06-01T12:14:38;101369.73;;;34.03;38.27
68712;BME280;55690;51.566;19.198;2023-06-01T12:18:41;101350.19;;;34.13;38.28
68712;BME280;55690;51.566;19.198;2023-06-01T12:22:47;101357.19;;;34.11;37.92
68712;BME280;55690;51.566;19.198;2023-06-01T12:26:53;101358.11;;;33.99;38.69
68712;BME280;55690;51.566;19.198;2023-06-01T12:31:11;101352.95;;;34.58;38.47
68712;BME280;55690;51.566;19.198;2023-06-01T12:35:14;101354.62;;;34.76;38.20
68712;BME280;55690;51.566;19.198;2023-06-01T12:43:30;101339.24;;;34.84;37.15
68712;BME280;55690;51.566;19.198;2023-06-01T12:47:38;101340.02;;;34.12;37.56
68712;BME280;55690;51.566;19.198;2023-06-01T12:51:41;101344.38;;;34.03;38.86
68712;BME280;55690;51.566;19.198;2023-06-01T12:55:43;101338.60;;;34.43;38.36
68712;BME280;55690;51.566;19.198;2023-06-01T12:59:44;101334.23;;;34.52;38.76
68712;BME280;55690;51.566;19.198;2023-06-01T13:03:48;101339.52;;;34.65;38.43
68712;BME280;55690;51.566;19.198;2023-06-01T13:07:54;101328.63;;;34.91;38.06
68712;BME280;55690;51.566;19.198;2023-06-01T13:12:01;101312.14;;;34.66;37.53
68712;BME280;55690;51.566;19.198;2023-06-01T13:16:07;101327.65;;;34.63;38.35
68712;BME280;55690;51.566;19.198;2023-06-01T13:20:13;101321.93;;;34.42;38.06
68712;BME280;55690;51.566;19.198;2023-06-01T13:24:19;101324.47;;;34.10;38.21
68712;BME280;55690;51.566;19.198;2023-06-01T13:28:25;101310.00;;;33.89;38.70
68712;BME280;55690;51.566;19.198;2023-06-01T13:32:31;101301.48;;;34.01;39.17
68712;BME280;55690;51.566;19.198;2023-06-01T13:36:37;101312.68;;;33.96;39.12
68712;BME280;55690;51.566;19.198;2023-06-01T13:40:44;101299.36;;;33.63;39.10
68712;BME280;55690;51.566;19.198;2023-06-01T13:44:50;101296.45;;;33.58;39.12
68712;BME280;55690;51.566;19.198;2023-06-01T13:48:56;101297.56;;;33.28;39.61
68712;BME280;55690;51.566;19.198;2023-06-01T13:53:02;101287.52;;;33.32;39.09
68712;BME280;55690;51.566;19.198;2023-06-01T13:57:09;101283.24;;;33.18;39.10
68712;BME280;55690;51.566;19.198;2023-06-01T14:01:14;101277.96;;;33.33;39.75
68712;BME280;55690;51.566;19.198;2023-06-01T14:05:21;101277.72;;;33.23;39.76
68712;BME280;55690;51.566;19.198;2023-06-01T14:09:27;101279.78;;;32.88;39.69
68712;BME280;55690;51.566;19.198;2023-06-01T14:13:33;101267.32;;;32.84;39.68
68712;BME280;55690;51.566;19.198;2023-06-01T14:17:39;101264.31;;;33.02;40.40
68712;BME280;55690;51.566;19.198;2023-06-01T14:21:45;101263.04;;;33.21;39.97
68712;BME280;55690;51.566;19.198;2023-06-01T14:25:51;101266.59;;;32.77;39.76
68712;BME280;55690;51.566;19.198;2023-06-01T14:29:57;101262.11;;;33.04;39.64
68712;BME280;55690;51.566;19.198;2023-06-01T14:34:04;101253.16;;;33.07;39.92
68712;BME280;55690;51.566;19.198;2023-06-01T14:38:10;101252.89;;;32.80;39.83
68712;BME280;55690;51.566;19.198;2023-06-01T14:42:17;101249.20;;;32.68;39.89
68712;BME280;55690;51.566;19.198;2023-06-01T14:46:22;101242.90;;;32.49;40.45
68712;BME280;55690;51.566;19.198;2023-06-01T14:50:28;101248.23;;;32.16;39.91
68712;BME280;55690;51.566;19.198;2023-06-01T14:54:35;101250.85;;;32.40;39.76
68712;BME280;55690;51.566;19.198;2023-06-01T14:58:41;101251.16;;;32.09;40.13
68712;BME280;55690;51.566;19.198;2023-06-01T15:02:47;101257.27;;;31.64;39.92
68712;BME280;55690;51.566;19.198;2023-06-01T15:06:53;101257.18;;;31.59;39.97
68712;BME280;55690;51.566;19.198;2023-06-01T15:10:59;101249.95;;;31.52;39.60
68712;BME280;55690;51.566;19.198;2023-06-01T15:15:06;101247.80;;;31.35;40.20
68712;BME280;55690;51.566;19.198;2023-06-01T15:19:11;101232.98;;;30.98;39.47
68712;BME280;55690;51.566;19.198;2023-06-01T15:23:18;101244.04;;;30.93;39.67
68712;BME280;55690;51.566;19.198;2023-06-01T15:27:24;101240.23;;;30.88;40.04
68712;BME280;55690;51.566;19.198;2023-06-01T15:31:30;101237.96;;;30.78;40.20
68712;BME280;55690;51.566;19.198;2023-06-01T15:35:36;101234.80;;;30.74;40.60
68712;BME280;55690;51.566;19.198;2023-06-01T15:39:42;101228.53;;;30.54;40.08
68712;BME280;55690;51.566;19.198;2023-06-01T15:43:48;101237.07;;;30.66;40.12
68712;BME280;55690;51.566;19.198;2023-06-01T15:47:55;101225.12;;;30.52;39.99
68712;BME280;55690;51.566;19.198;2023-06-01T15:52:01;101223.01;;;30.29;39.84
68712;BME280;55690;51.566;19.198;2023-06-01T15:56:07;101218.73;;;30.02;39.61
68712;BME280;55690;51.566;19.198;2023-06-01T16:00:14;101217.51;;;29.91;39.53
68712;BME280;55690;51.566;19.198;2023-06-01T16:04:19;101214.41;;;29.50;38.71
68712;BME280;55690;51.566;19.198;2023-06-01T16:08:26;101212.13;;;29.90;39.51
68712;BME280;55690;51.566;19.198;2023-06-01T16:12:32;101214.71;;;29.41;39.46
68712;BME280;55690;51.566;19.198;2023-06-01T16:16:38;101218.87;;;29.26;40.67
68712;BME280;55690;51.566;19.198;2023-06-01T16:20:44;101202.85;;;29.39;40.15
68712;BME280;55690;51.566;19.198;2023-06-01T16:24:50;101216.92;;;29.26;40.54
68712;BME280;55690;51.566;19.198;2023-06-01T16:28:56;101207.33;;;29.09;41.16
68712;BME280;55690;51.566;19.198;2023-06-01T16:33:02;101204.82;;;29.01;41.29
68712;BME280;55690;51.566;19.198;2023-06-01T16:37:08;101195.64;;;28.87;40.70
68712;BME280;55690;51.566;19.198;2023-06-01T16:41:15;101206.03;;;28.60;40.31
68712;BME280;55690;51.566;19.198;2023-06-01T16:45:21;101198.41;;;28.94;40.90
68712;BME280;55690;51.566;19.198;2023-06-01T16:49:27;101189.61;;;28.90;41.12
68712;BME280;55690;51.566;19.198;2023-06-01T16:53:33;101193.77;;;28.61;42.01
68712;BME280;55690;51.566;19.198;2023-06-01T16:57:40;101192.11;;;28.54;41.67
68712;BME280;55690;51.566;19.198;2023-06-01T17:01:45;101179.55;;;28.69;41.75
68712;BME280;55690;51.566;19.198;2023-06-01T17:05:52;101187.28;;;28.74;42.03
68712;BME280;55690;51.566;19.198;2023-06-01T17:09:58;101179.24;;;28.46;42.55
68712;BME280;55690;51.566;19.198;2023-06-01T17:14:04;101184.25;;;28.11;44.12
68712;BME280;55690;51.566;19.198;2023-06-01T17:18:10;101175.47;;;27.94;43.25
68712;BME280;55690;51.566;19.198;2023-06-01T17:22:16;101172.46;;;27.89;43.57
68712;BME280;55690;51.566;19.198;2023-06-01T17:26:25;101177.59;;;27.46;44.42
68712;BME280;55690;51.566;19.198;2023-06-01T17:30:32;101172.24;;;27.58;45.23
68712;BME280;55690;51.566;19.198;2023-06-01T17:34:38;101171.80;;;27.28;46.61
68712;BME280;55690;51.566;19.198;2023-06-01T17:38:44;101166.66;;;27.58;45.59
68712;BME280;55690;51.566;19.198;2023-06-01T17:42:50;101167.52;;;27.52;46.31
68712;BME280;55690;51.566;19.198;2023-06-01T17:46:56;101162.80;;;27.52;46.67
68712;BME280;55690;51.566;19.198;2023-06-01T17:51:03;101166.02;;;27.56;46.47
68712;BME280;55690;51.566;19.198;2023-06-01T17:55:09;101167.30;;;27.46;46.57
68712;BME280;55690;51.566;19.198;2023-06-01T17:59:15;101159.13;;;27.38;47.05
68712;BME280;55690;51.566;19.198;2023-06-01T18:03:21;101163.41;;;27.08;47.69
68712;BME280;55690;51.566;19.198;2023-06-01T18:07:27;101162.44;;;26.88;47.96
68712;BME280;55690;51.566;19.198;2023-06-01T18:11:33;101171.02;;;26.79;49.40
68712;BME280;55690;51.566;19.198;2023-06-01T18:15:39;101166.84;;;26.56;50.06
68712;BME280;55690;51.566;19.198;2023-06-01T18:19:46;101167.42;;;26.38;49.93
68712;BME280;55690;51.566;19.198;2023-06-01T18:23:52;101169.04;;;26.26;50.47
68712;BME280;55690;51.566;19.198;2023-06-01T18:27:58;101171.57;;;26.21;50.56
68712;BME280;55690;51.566;19.198;2023-06-01T18:32:05;101177.13;;;26.21;50.78
68712;BME280;55690;51.566;19.198;2023-06-01T18:36:10;101180.77;;;25.87;51.31
68712;BME280;55690;51.566;19.198;2023-06-01T18:40:16;101190.89;;;25.45;51.64
68712;BME280;55690;51.566;19.198;2023-06-01T18:44:23;101198.37;;;25.44;52.43
68712;BME280;55690;51.566;19.198;2023-06-01T18:48:29;101193.21;;;25.41;52.08
68712;BME280;55690;51.566;19.198;2023-06-01T18:52:35;101202.61;;;25.40;52.50
68712;BME280;55690;51.566;19.198;2023-06-01T18:56:41;101202.40;;;25.42;52.30
68712;BME280;55690;51.566;19.198;2023-06-01T19:00:47;101213.27;;;25.37;53.38
68712;BME280;55690;51.566;19.198;2023-06-01T19:04:55;101225.09;;;25.24;53.36
68712;BME280;55690;51.566;19.198;2023-06-01T19:09:03;101234.48;;;25.02;54.16
68712;BME280;55690;51.566;19.198;2023-06-01T19:13:06;101227.67;;;24.90;54.11
68712;BME280;55690;51.566;19.198;2023-06-01T19:17:14;101230.86;;;24.72;54.15
68712;BME280;55690;51.566;19.198;2023-06-01T19:21:22;101229.08;;;24.64;54.29
68712;BME280;55690;51.566;19.198;2023-06-01T19:25:25;101230.80;;;24.65;54.63
68712;BME280;55690;51.566;19.198;2023-06-01T19:29:35;101235.48;;;24.65;54.64
68712;BME280;55690;51.566;19.198;2023-06-01T19:33:39;101242.88;;;24.58;55.10
68712;BME280;55690;51.566;19.198;2023-06-01T19:37:46;101242.87;;;24.43;56.16
68712;BME280;55690;51.566;19.198;2023-06-01T19:41:49;101246.39;;;24.22;55.57
68712;BME280;55690;51.566;19.198;2023-06-01T19:46:01;101243.20;;;24.10;56.00
68712;BME280;55690;51.566;19.198;2023-06-01T19:54:23;101247.45;;;23.83;57.74
68712;BME280;55690;51.566;19.198;2023-06-01T19:58:26;101244.54;;;23.62;58.25
68712;BME280;55690;51.566;19.198;2023-06-01T20:02:38;101240.45;;;23.50;58.39
68712;BME280;55690;51.566;19.198;2023-06-01T20:10:48;101260.17;;;23.32;59.22
68712;BME280;55690;51.566;19.198;2023-06-01T20:14:49;101257.69;;;23.14;58.79
68712;BME280;55690;51.566;19.198;2023-06-01T20:18:51;101257.30;;;22.95;59.50
68712;BME280;55690;51.566;19.198;2023-06-01T20:22:55;101258.05;;;22.72;59.18
68712;BME280;55690;51.566;19.198;2023-06-01T20:27:01;101259.21;;;22.94;59.00
68712;BME280;55690;51.566;19.198;2023-06-01T20:31:04;101264.17;;;22.99;58.21
68712;BME280;55690;51.566;19.198;2023-06-01T20:35:09;101256.14;;;23.12;58.11
68712;BME280;55690;51.566;19.198;2023-06-01T20:39:15;101267.98;;;22.98;59.23
68712;BME280;55690;51.566;19.198;2023-06-01T20:43:24;101276.55;;;22.88;58.85
68712;BME280;55690;51.566;19.198;2023-06-01T20:47:27;101277.91;;;22.92;58.60
68712;BME280;55690;51.566;19.198;2023-06-01T20:51:41;101283.49;;;22.76;59.36
68712;BME280;55690;51.566;19.198;2023-06-01T20:55:43;101279.91;;;22.59;59.91
68712;BME280;55690;51.566;19.198;2023-06-01T20:59:46;101293.21;;;22.64;58.37
68712;BME280;55690;51.566;19.198;2023-06-01T21:03:53;101290.95;;;22.67;58.87
68712;BME280;55690;51.566;19.198;2023-06-01T21:07:58;101291.73;;;22.45;60.00
68712;BME280;55690;51.566;19.198;2023-06-01T21:12:05;101292.79;;;22.36;60.30
68712;BME280;55690;51.566;19.198;2023-06-01T21:16:11;101275.52;;;22.17;59.72
68712;BME280;55690;51.566;19.198;2023-06-01T21:20:17;101301.82;;;21.97;59.99
68712;BME280;55690;51.566;19.198;2023-06-01T21:24:23;101294.73;;;22.11;60.50
68712;BME280;55690;51.566;19.198;2023-06-01T21:28:31;101302.33;;;21.68;59.77
68712;BME280;55690;51.566;19.198;2023-06-01T21:32:36;101310.95;;;21.41;61.78
68712;BME280;55690;51.566;19.198;2023-06-01T21:36:42;101303.02;;;21.78;61.06
68712;BME280;55690;51.566;19.198;2023-06-01T21:40:48;101310.09;;;21.40;60.90
68712;BME280;55690;51.566;19.198;2023-06-01T21:44:55;101312.71;;;21.82;60.49
68712;BME280;55690;51.566;19.198;2023-06-01T21:49:00;101302.69;;;21.89;61.08
68712;BME280;55690;51.566;19.198;2023-06-01T21:53:07;101317.70;;;21.54;61.44
68712;BME280;55690;51.566;19.198;2023-06-01T21:57:13;101314.24;;;21.69;61.57